Alakanuk, AK

3:09 AM AKDT on September 02, 2014 (GMT -0800)
Cape Romanzoff | Change Station
CLOSE
Current Station
Airport
Location: Cape Romanzoff,
Elevation: 479 ft
Nearby Weather Stations

Elev 479 ft 61.78 °N, 166.04 °W | Updated 56 minutes ago

Light Drizzle
Light Drizzle
48 °F
Feels Like 48 °F
N
10
Wind Variable Wind from NNE

Today
High -- | Low -- °F
--% Chance of Precip.
Yesterday
High -- | Low -- °F
Precip. -- in
7:48 AM 10:05 PM
Waxing Crescent, 50% visible
Pressure 29.88 in
Visibility 3.0 miles
Clouds Overcast 700 ft
Dew Point 48 °F
Humidity 100%
Rainfall 0.00 in
Snow Depth Not available.
UV 0 out of 12
Pollen Not available.
Air Quality Not available.
Flu Activity Not available.
SPECI PACZ 021013Z AUTO 02009KT 280V160 3SM -DZ OVC007 09/09 A2988 RMK AO2 SLP119

More Conditions Fewer Conditions

Pressure 29.88 in
Visibility 3.0 miles
Clouds Overcast 700 ft
Dew Point 48 °F
Humidity 100%
Rainfall 0.00 in
Snow Depth Not available.
UV 0 out of 12
Pollen Not available.
Air Quality Not available.
Flu Activity Not available.
SPECI PACZ 021013Z AUTO 02009KT 280V160 3SM -DZ OVC007 09/09 A2988 RMK AO2 SLP119

More Conditions Fewer Conditions

10-Day Weather Forecast

Almanac

Astronomy

Sep. 02, 2014 Rise Set
Actual Time 7:48 AM AKDT 10:05 PM AKDT
Civil Twilight 6:59 AM AKDT 10:54 PM AKDT
Nautical Twilight 5:52 AM AKDT 12:00 AM AKDT
Astronomical Twilight 4:12 AM AKDT 1:35 AM AKDT
Moon 6:05 PM AKDT 12:05 AM AKDT
Length of Visible Light 15h 55m
Length of Day
14h 16m
Tomorrow will be 6m 3s shorter.
Waxing Crescent, 50% of the Moon is Illuminated
Today
Waxing Crescent
Sep 2
First Quarter
Sep 8
Full
Sep 15
Last Quarter
Sep 24
New

Today's Extremes

State Highs State Lows

Community

WunderPhotos

Upload Photos

1,749,621 photos uploaded!

WunderBlogs® & News

By Dr. Jeff Masters
Director of Meteorology, Weather Underground
By Kari Strenfel
Meteorologist, Weather Underground
By Christopher C. Burt
Weather Historian, Weather Underground
September 2, 2014
September 2, 2014
September 2, 2014

Nearby

Snow Depth

Station Depth Elevation
Rocky Point 4 in 500 ft
Susitna Valley High 2 in 375 ft
Mcneil Canyon 1 in 1320 ft
Point Mackenzie 1 in 200 ft
Port Graham 0 in 300 ft

Earthquake Activity

City Distance Mag. Time & Date
No recent earthquake activity has been reported nearby.
Minimum magnitude displayed is 2.5.

Coastal Water Temperatures

Place Temperature
No Stations Reporting

Nearby Weather Stations